Aérodrome :
LOGIN :

S'inscrire | Disclaimer

   EN    FR    IT 

 










Légende :    VFR   VFR Marginal   IFR   IFR Intensif   IFR Très Intensif
Visi : 
Plafond : 
>= 8 km
>= 3000ft
5 à 8 km
1000 à 3000 ft
1500m à 5 km
500 à 1000 ft
800 à 1500m
200 à 500 ft
< 800m
< 200 ft
Symboles :   Orages  Brouillard  Fortes neiges  Fortes précipitations  Vent > 20 kt
SIGMETs :   Divers  Orages  Givrage  Turbulence  Onde Orograph.  Cendres Volcan.







- Altitude de l'aérodrome : 154 ft
- Code IATA : SZZ


EPSC - Szczecin Goleniow

DERNIER METAR :
  • 201500Z 01005KT 330V050 9999 -TSRA SCT042CB SCT048 22/18 Q1001

METARs EXPIRÉS :
  • 201430Z 01006KT 340V050 9999 -SHRA FEW042CB 23/17 Q1001
  • 201400Z 08005KT 040V110 9999 FEW038 24/15 Q1002
  • 201330Z 08009KT 040V110 9999 FEW039CB 25/16 Q1002
  • 201300Z 08008KT 360V130 9999 FEW039 25/15 Q1002
  • 201230Z 06006KT 020V120 9999 FEW010 SCT041CB 24/16 Q1002

TAF TAF EPSC
Valide du 20 à 12h jusqu'au 21 à 12h UTC


201130Z 2012/2112 09010KT CAVOK
TEMPO 2014/2022 VRB15G25KT 3000 TSRA BKN020CB
TEMPO 2015/2021 1500 +TSRA TSGR BKN005 BKN014CB
BECMG 2021/2023 3000 BR
PROB40 2023/2106 0400 FG OVC001
Pas de NOTAMs connus pour ce terrain.
3 SIGMETs publiés pour la FIR Warszawa (EPWW) :
 
Orages en lignes de grains avec grêle
EPWW SIGMET 4 VALID 201410/201810 EPWA
EPWW WARSAW FIR SQL TSGR OBS LINE N5400 E01800 - N5330 E02140 - N5120 E02310 TOP FL400 MOV NNW NC=
Orages en lignes de grains avec grêle
EPWW SIGMET 3 VALID 201220/201620 EPWA
EPWW WARSAW FIR SQL TSGR OBS LINE N5050 E02040 - N5010 E02200 - N4950 E02250 TOP FL400 MOV NNW INTSF=
Orages noyés dans la masse
EPWW SIGMET 2 VALID 201205/201605 EPWA
EPWW WARSAW FIR EMBD TS OBS WI N5300 E01850 - N5220 E01440 - N5110 E01500 - N5140 E01740 - N5300 E01850 TOP FL350 MOV NW INTSF=



MET'MAP, la Météo Aéronautique d'un coup d'oeil ! - Copyright ORBIFLY Décembre 2007 - Disclaimer

ORBIFLY MET'MAP TEAM :

Programmation & Développement : Alexandra Zaïnal
Conception & Développement : Baudouin d'Aumeries
Co-Programmation & Développement : Marc-Olivier Méhu
Soutien technique & logistique : Manuel Goepfert

Contact : metmap@orbifly.com




SOURCES & CREDITS :

   NOAA